sensor_id;sensor_type;location;lat;lon;timestamp;temperature;humidity
17128;DHT22;8679;50.842;4.322;2023-01-28T00:00:05;4.60;99.90
17128;DHT22;8679;50.842;4.322;2023-01-28T00:02:32;4.60;99.90
17128;DHT22;8679;50.842;4.322;2023-01-28T00:04:58;4.60;99.90
17128;DHT22;8679;50.842;4.322;2023-01-28T00:07:23;4.60;99.90
17128;DHT22;8679;50.842;4.322;2023-01-28T00:09:49;4.60;99.90
17128;DHT22;8679;50.842;4.322;2023-01-28T00:12:15;4.60;99.90
17128;DHT22;8679;50.842;4.322;2023-01-28T00:14:40;4.60;99.90
17128;DHT22;8679;50.842;4.322;2023-01-28T00:17:06;4.60;99.90
17128;DHT22;8679;50.842;4.322;2023-01-28T00:19:32;4.50;99.90
17128;DHT22;8679;50.842;4.322;2023-01-28T00:21:57;4.60;99.90
17128;DHT22;8679;50.842;4.322;2023-01-28T00:24:23;4.50;99.90
17128;DHT22;8679;50.842;4.322;2023-01-28T00:26:49;4.50;99.90
17128;DHT22;8679;50.842;4.322;2023-01-28T00:29:15;4.60;99.90
17128;DHT22;8679;50.842;4.322;2023-01-28T00:31:40;4.60;99.90
17128;DHT22;8679;50.842;4.322;2023-01-28T00:34:06;4.50;99.90
17128;DHT22;8679;50.842;4.322;2023-01-28T00:36:32;4.60;99.90
17128;DHT22;8679;50.842;4.322;2023-01-28T00:38:58;4.60;99.90
17128;DHT22;8679;50.842;4.322;2023-01-28T00:41:26;4.60;99.90
17128;DHT22;8679;50.842;4.322;2023-01-28T00:43:53;4.60;99.90
17128;DHT22;8679;50.842;4.322;2023-01-28T00:46:19;4.50;99.90
17128;DHT22;8679;50.842;4.322;2023-01-28T00:48:45;4.60;99.90
17128;DHT22;8679;50.842;4.322;2023-01-28T00:51:13;4.50;99.90
17128;DHT22;8679;50.842;4.322;2023-01-28T00:53:40;4.60;99.90
17128;DHT22;8679;50.842;4.322;2023-01-28T00:56:06;4.50;99.90
17128;DHT22;8679;50.842;4.322;2023-01-28T00:58:33;4.50;99.90
17128;DHT22;8679;50.842;4.322;2023-01-28T01:01:12;4.50;99.90
17128;DHT22;8679;50.842;4.322;2023-01-28T01:03:39;4.50;99.90
17128;DHT22;8679;50.842;4.322;2023-01-28T01:06:05;4.50;99.90
17128;DHT22;8679;50.842;4.322;2023-01-28T01:08:32;4.50;99.90
17128;DHT22;8679;50.842;4.322;2023-01-28T01:11:05;4.50;99.90
17128;DHT22;8679;50.842;4.322;2023-01-28T01:13:31;4.50;99.90
17128;DHT22;8679;50.842;4.322;2023-01-28T01:16:04;4.40;99.90
17128;DHT22;8679;50.842;4.322;2023-01-28T01:18:31;4.50;99.90
17128;DHT22;8679;50.842;4.322;2023-01-28T01:20:57;4.50;99.90
17128;DHT22;8679;50.842;4.322;2023-01-28T01:23:27;4.50;99.90
17128;DHT22;8679;50.842;4.322;2023-01-28T01:25:53;4.50;99.90
17128;DHT22;8679;50.842;4.322;2023-01-28T01:28:19;4.50;99.90
17128;DHT22;8679;50.842;4.322;2023-01-28T01:30:46;4.40;99.90
17128;DHT22;8679;50.842;4.322;2023-01-28T01:33:12;4.40;99.90
17128;DHT22;8679;50.842;4.322;2023-01-28T01:35:37;4.40;99.90
17128;DHT22;8679;50.842;4.322;2023-01-28T01:38:03;4.40;99.90
17128;DHT22;8679;50.842;4.322;2023-01-28T01:40:29;4.40;99.90
17128;DHT22;8679;50.842;4.322;2023-01-28T01:42:54;4.40;99.90
17128;DHT22;8679;50.842;4.322;2023-01-28T01:45:20;4.40;99.90
17128;DHT22;8679;50.842;4.322;2023-01-28T01:48:06;4.40;99.90
17128;DHT22;8679;50.842;4.322;2023-01-28T01:50:40;4.40;99.90
17128;DHT22;8679;50.842;4.322;2023-01-28T01:53:15;4.40;99.90
17128;DHT22;8679;50.842;4.322;2023-01-28T01:55:45;4.40;99.90
17128;DHT22;8679;50.842;4.322;2023-01-28T01:58:18;4.30;99.90
17128;DHT22;8679;50.842;4.322;2023-01-28T02:00:46;4.40;99.90
17128;DHT22;8679;50.842;4.322;2023-01-28T02:03:11;4.40;99.90
17128;DHT22;8679;50.842;4.322;2023-01-28T02:05:38;4.30;99.90
17128;DHT22;8679;50.842;4.322;2023-01-28T02:08:04;4.30;99.90
17128;DHT22;8679;50.842;4.322;2023-01-28T02:10:52;4.30;99.90
17128;DHT22;8679;50.842;4.322;2023-01-28T02:13:21;4.30;99.90
17128;DHT22;8679;50.842;4.322;2023-01-28T02:15:49;4.30;99.90
17128;DHT22;8679;50.842;4.322;2023-01-28T02:18:15;4.30;99.90
17128;DHT22;8679;50.842;4.322;2023-01-28T02:23:26;4.40;99.90
17128;DHT22;8679;50.842;4.322;2023-01-28T02:32:19;4.30;99.90
17128;DHT22;8679;50.842;4.322;2023-01-28T02:35:00;4.30;99.90
17128;DHT22;8679;50.842;4.322;2023-01-28T02:37:34;4.20;99.90
17128;DHT22;8679;50.842;4.322;2023-01-28T02:40:26;4.20;99.90
17128;DHT22;8679;50.842;4.322;2023-01-28T02:42:57;4.20;99.90
17128;DHT22;8679;50.842;4.322;2023-01-28T02:45:31;4.20;99.90
17128;DHT22;8679;50.842;4.322;2023-01-28T02:48:21;4.20;99.90
17128;DHT22;8679;50.842;4.322;2023-01-28T02:51:23;4.20;99.90
17128;DHT22;8679;50.842;4.322;2023-01-28T02:54:12;4.20;99.90
17128;DHT22;8679;50.842;4.322;2023-01-28T02:56:52;4.20;99.90
17128;DHT22;8679;50.842;4.322;2023-01-28T02:59:28;4.20;99.90
17128;DHT22;8679;50.842;4.322;2023-01-28T03:02:22;4.20;99.90
17128;DHT22;8679;50.842;4.322;2023-01-28T03:05:16;4.20;99.90
17128;DHT22;8679;50.842;4.322;2023-01-28T03:07:45;4.20;99.90
17128;DHT22;8679;50.842;4.322;2023-01-28T03:10:16;4.20;99.90
17128;DHT22;8679;50.842;4.322;2023-01-28T03:12:43;4.20;99.90
17128;DHT22;8679;50.842;4.322;2023-01-28T03:15:33;4.20;99.90
17128;DHT22;8679;50.842;4.322;2023-01-28T03:18:26;4.20;99.90
17128;DHT22;8679;50.842;4.322;2023-01-28T03:21:23;4.10;99.90
17128;DHT22;8679;50.842;4.322;2023-01-28T03:24:12;4.10;99.90
17128;DHT22;8679;50.842;4.322;2023-01-28T03:27:33;4.10;99.90
17128;DHT22;8679;50.842;4.322;2023-01-28T03:30:29;4.10;99.90
17128;DHT22;8679;50.842;4.322;2023-01-28T03:33:16;4.20;99.90
17128;DHT22;8679;50.842;4.322;2023-01-28T03:36:01;4.20;99.90
17128;DHT22;8679;50.842;4.322;2023-01-28T03:38:45;4.20;99.90
17128;DHT22;8679;50.842;4.322;2023-01-28T03:41:20;4.10;99.90
17128;DHT22;8679;50.842;4.322;2023-01-28T03:43:46;4.10;99.90
17128;DHT22;8679;50.842;4.322;2023-01-28T03:46:12;4.10;99.90
17128;DHT22;8679;50.842;4.322;2023-01-28T03:48:38;4.10;99.90
17128;DHT22;8679;50.842;4.322;2023-01-28T03:51:03;4.10;99.90
17128;DHT22;8679;50.842;4.322;2023-01-28T03:53:29;4.10;99.90
17128;DHT22;8679;50.842;4.322;2023-01-28T03:55:55;4.10;99.90
17128;DHT22;8679;50.842;4.322;2023-01-28T03:58:24;4.10;99.90
17128;DHT22;8679;50.842;4.322;2023-01-28T04:01:25;4.10;99.90
17128;DHT22;8679;50.842;4.322;2023-01-28T04:03:51;4.10;99.90
17128;DHT22;8679;50.842;4.322;2023-01-28T04:06:17;4.00;99.90
17128;DHT22;8679;50.842;4.322;2023-01-28T04:08:42;4.00;99.90
17128;DHT22;8679;50.842;4.322;2023-01-28T04:11:13;4.00;99.90
17128;DHT22;8679;50.842;4.322;2023-01-28T04:13:45;4.00;99.90
17128;DHT22;8679;50.842;4.322;2023-01-28T04:16:13;4.00;99.90
17128;DHT22;8679;50.842;4.322;2023-01-28T04:18:39;4.00;99.90
17128;DHT22;8679;50.842;4.322;2023-01-28T04:21:05;4.00;99.90
17128;DHT22;8679;50.842;4.322;2023-01-28T04:23:30;4.00;99.90
17128;DHT22;8679;50.842;4.322;2023-01-28T04:25:56;4.00;99.90
17128;DHT22;8679;50.842;4.322;2023-01-28T04:28:22;4.00;99.90
17128;DHT22;8679;50.842;4.322;2023-01-28T04:30:48;4.00;99.90
17128;DHT22;8679;50.842;4.322;2023-01-28T04:33:13;4.00;99.90
17128;DHT22;8679;50.842;4.322;2023-01-28T04:35:39;3.90;99.90
17128;DHT22;8679;50.842;4.322;2023-01-28T04:38:05;3.90;99.90
17128;DHT22;8679;50.842;4.322;2023-01-28T04:40:31;3.90;99.90
17128;DHT22;8679;50.842;4.322;2023-01-28T04:42:57;3.90;99.90
17128;DHT22;8679;50.842;4.322;2023-01-28T04:45:23;3.90;99.90
17128;DHT22;8679;50.842;4.322;2023-01-28T04:47:49;3.90;99.90
17128;DHT22;8679;50.842;4.322;2023-01-28T04:50:15;3.90;99.90
17128;DHT22;8679;50.842;4.322;2023-01-28T04:52:41;3.90;99.90
17128;DHT22;8679;50.842;4.322;2023-01-28T04:55:07;3.90;99.90
17128;DHT22;8679;50.842;4.322;2023-01-28T04:57:33;3.90;99.90
17128;DHT22;8679;50.842;4.322;2023-01-28T04:59:59;3.90;99.90
17128;DHT22;8679;50.842;4.322;2023-01-28T05:02:25;3.90;99.90
17128;DHT22;8679;50.842;4.322;2023-01-28T05:04:50;3.90;99.90
17128;DHT22;8679;50.842;4.322;2023-01-28T05:07:16;3.90;99.90
17128;DHT22;8679;50.842;4.322;2023-01-28T05:09:41;3.90;99.90
17128;DHT22;8679;50.842;4.322;2023-01-28T05:12:07;3.90;99.90
17128;DHT22;8679;50.842;4.322;2023-01-28T05:14:33;3.90;99.90
17128;DHT22;8679;50.842;4.322;2023-01-28T05:16:58;3.90;99.90
17128;DHT22;8679;50.842;4.322;2023-01-28T05:19:24;3.90;99.90
17128;DHT22;8679;50.842;4.322;2023-01-28T05:21:50;3.90;99.90
17128;DHT22;8679;50.842;4.322;2023-01-28T05:24:15;3.90;99.90
17128;DHT22;8679;50.842;4.322;2023-01-28T05:26:41;3.90;99.90
17128;DHT22;8679;50.842;4.322;2023-01-28T05:29:07;3.80;99.90
17128;DHT22;8679;50.842;4.322;2023-01-28T05:31:33;3.80;99.90
17128;DHT22;8679;50.842;4.322;2023-01-28T05:33:59;3.80;99.90
17128;DHT22;8679;50.842;4.322;2023-01-28T05:36:24;3.80;99.90
17128;DHT22;8679;50.842;4.322;2023-01-28T05:38:50;3.80;99.90
17128;DHT22;8679;50.842;4.322;2023-01-28T05:41:16;3.80;99.90
17128;DHT22;8679;50.842;4.322;2023-01-28T05:43:42;3.70;99.90
17128;DHT22;8679;50.842;4.322;2023-01-28T05:46:07;3.70;99.90
17128;DHT22;8679;50.842;4.322;2023-01-28T05:48:33;3.70;99.90
17128;DHT22;8679;50.842;4.322;2023-01-28T05:50:59;3.70;99.90
17128;DHT22;8679;50.842;4.322;2023-01-28T05:53:25;3.70;99.90
17128;DHT22;8679;50.842;4.322;2023-01-28T05:55:51;3.70;99.90
17128;DHT22;8679;50.842;4.322;2023-01-28T05:58:18;3.70;99.90
17128;DHT22;8679;50.842;4.322;2023-01-28T06:00:44;3.70;99.90
17128;DHT22;8679;50.842;4.322;2023-01-28T06:03:10;3.60;99.90
17128;DHT22;8679;50.842;4.322;2023-01-28T06:05:36;3.60;99.90
17128;DHT22;8679;50.842;4.322;2023-01-28T06:08:02;3.60;99.90
17128;DHT22;8679;50.842;4.322;2023-01-28T06:10:27;3.70;99.90
17128;DHT22;8679;50.842;4.322;2023-01-28T06:12:53;3.60;99.90
17128;DHT22;8679;50.842;4.322;2023-01-28T06:15:19;3.60;99.90
17128;DHT22;8679;50.842;4.322;2023-01-28T06:17:44;3.60;99.90
17128;DHT22;8679;50.842;4.322;2023-01-28T06:20:10;3.60;99.90
17128;DHT22;8679;50.842;4.322;2023-01-28T06:22:36;3.60;99.90
17128;DHT22;8679;50.842;4.322;2023-01-28T06:25:02;3.50;99.90
17128;DHT22;8679;50.842;4.322;2023-01-28T06:27:27;3.50;99.90
17128;DHT22;8679;50.842;4.322;2023-01-28T06:29:53;3.50;99.90
17128;DHT22;8679;50.842;4.322;2023-01-28T06:32:18;3.50;99.90
17128;DHT22;8679;50.842;4.322;2023-01-28T06:34:45;3.50;99.90
17128;DHT22;8679;50.842;4.322;2023-01-28T06:37:14;3.50;99.90
17128;DHT22;8679;50.842;4.322;2023-01-28T06:39:40;3.50;99.90
17128;DHT22;8679;50.842;4.322;2023-01-28T06:42:05;3.50;99.90
17128;DHT22;8679;50.842;4.322;2023-01-28T06:44:31;3.40;99.90
17128;DHT22;8679;50.842;4.322;2023-01-28T06:46:57;3.40;99.90
17128;DHT22;8679;50.842;4.322;2023-01-28T06:49:22;3.40;99.90
17128;DHT22;8679;50.842;4.322;2023-01-28T06:51:48;3.40;99.90
17128;DHT22;8679;50.842;4.322;2023-01-28T06:54:14;3.40;99.90
17128;DHT22;8679;50.842;4.322;2023-01-28T06:56:40;3.40;99.90
17128;DHT22;8679;50.842;4.322;2023-01-28T06:59:06;3.40;99.90
17128;DHT22;8679;50.842;4.322;2023-01-28T07:01:32;3.40;99.90
17128;DHT22;8679;50.842;4.322;2023-01-28T07:03:58;3.40;99.90
17128;DHT22;8679;50.842;4.322;2023-01-28T07:06:23;3.40;99.90
17128;DHT22;8679;50.842;4.322;2023-01-28T07:08:49;3.40;99.90
17128;DHT22;8679;50.842;4.322;2023-01-28T07:11:15;3.40;99.90
17128;DHT22;8679;50.842;4.322;2023-01-28T07:13:41;3.40;99.90
17128;DHT22;8679;50.842;4.322;2023-01-28T07:16:08;3.40;99.90
17128;DHT22;8679;50.842;4.322;2023-01-28T07:18:33;3.40;99.90
17128;DHT22;8679;50.842;4.322;2023-01-28T07:21:00;3.40;99.90
17128;DHT22;8679;50.842;4.322;2023-01-28T07:23:26;3.40;99.90
17128;DHT22;8679;50.842;4.322;2023-01-28T07:25:51;3.40;99.90
17128;DHT22;8679;50.842;4.322;2023-01-28T07:28:17;3.30;99.90
17128;DHT22;8679;50.842;4.322;2023-01-28T07:30:52;3.30;99.90
17128;DHT22;8679;50.842;4.322;2023-01-28T07:33:18;3.30;99.90
17128;DHT22;8679;50.842;4.322;2023-01-28T07:35:44;3.40;99.90
17128;DHT22;8679;50.842;4.322;2023-01-28T07:38:10;3.40;99.90
17128;DHT22;8679;50.842;4.322;2023-01-28T07:40:36;3.30;99.90
17128;DHT22;8679;50.842;4.322;2023-01-28T07:43:02;3.30;99.90
17128;DHT22;8679;50.842;4.322;2023-01-28T07:45:27;3.30;99.90
17128;DHT22;8679;50.842;4.322;2023-01-28T07:48:00;3.30;99.90
17128;DHT22;8679;50.842;4.322;2023-01-28T07:50:27;3.30;99.90
17128;DHT22;8679;50.842;4.322;2023-01-28T07:52:54;3.30;99.90
17128;DHT22;8679;50.842;4.322;2023-01-28T07:55:20;3.30;99.90
17128;DHT22;8679;50.842;4.322;2023-01-28T07:57:54;3.40;99.90
17128;DHT22;8679;50.842;4.322;2023-01-28T08:00:21;3.40;99.90
17128;DHT22;8679;50.842;4.322;2023-01-28T08:02:48;3.30;99.90
17128;DHT22;8679;50.842;4.322;2023-01-28T08:05:18;3.30;99.90
17128;DHT22;8679;50.842;4.322;2023-01-28T08:07:44;3.40;99.90
17128;DHT22;8679;50.842;4.322;2023-01-28T08:10:11;3.40;99.90
17128;DHT22;8679;50.842;4.322;2023-01-28T08:12:38;3.40;99.90
17128;DHT22;8679;50.842;4.322;2023-01-28T08:15:04;3.40;99.90
17128;DHT22;8679;50.842;4.322;2023-01-28T08:17:31;3.40;99.90
17128;DHT22;8679;50.842;4.322;2023-01-28T08:19:56;3.40;99.90
17128;DHT22;8679;50.842;4.322;2023-01-28T08:22:26;3.50;99.90
17128;DHT22;8679;50.842;4.322;2023-01-28T08:24:52;3.40;99.90
17128;DHT22;8679;50.842;4.322;2023-01-28T08:27:17;3.50;99.90
17128;DHT22;8679;50.842;4.322;2023-01-28T08:29:43;3.40;99.90
17128;DHT22;8679;50.842;4.322;2023-01-28T08:32:10;3.50;99.90
17128;DHT22;8679;50.842;4.322;2023-01-28T08:34:35;3.50;99.90
17128;DHT22;8679;50.842;4.322;2023-01-28T08:37:01;3.50;99.90
17128;DHT22;8679;50.842;4.322;2023-01-28T08:39:27;3.50;99.90
17128;DHT22;8679;50.842;4.322;2023-01-28T08:41:52;3.50;99.90
17128;DHT22;8679;50.842;4.322;2023-01-28T08:44:18;3.60;99.90
17128;DHT22;8679;50.842;4.322;2023-01-28T08:46:44;3.50;99.90
17128;DHT22;8679;50.842;4.322;2023-01-28T08:49:09;3.50;99.90
17128;DHT22;8679;50.842;4.322;2023-01-28T08:51:35;3.50;99.90
17128;DHT22;8679;50.842;4.322;2023-01-28T08:54:00;3.50;99.90
17128;DHT22;8679;50.842;4.322;2023-01-28T08:56:26;3.50;99.90
17128;DHT22;8679;50.842;4.322;2023-01-28T08:58:52;3.50;99.90
17128;DHT22;8679;50.842;4.322;2023-01-28T09:01:17;3.50;99.90
17128;DHT22;8679;50.842;4.322;2023-01-28T09:03:43;3.50;99.90
17128;DHT22;8679;50.842;4.322;2023-01-28T09:06:09;3.60;99.90
17128;DHT22;8679;50.842;4.322;2023-01-28T09:08:34;3.60;99.90
17128;DHT22;8679;50.842;4.322;2023-01-28T09:11:00;3.60;99.90
17128;DHT22;8679;50.842;4.322;2023-01-28T09:13:25;3.60;99.90
17128;DHT22;8679;50.842;4.322;2023-01-28T09:15:51;3.60;99.90
17128;DHT22;8679;50.842;4.322;2023-01-28T09:18:17;3.60;99.90
17128;DHT22;8679;50.842;4.322;2023-01-28T09:20:43;3.60;99.90
17128;DHT22;8679;50.842;4.322;2023-01-28T09:23:10;3.60;99.90
17128;DHT22;8679;50.842;4.322;2023-01-28T09:25:36;3.70;99.90
17128;DHT22;8679;50.842;4.322;2023-01-28T09:28:02;3.60;99.90
17128;DHT22;8679;50.842;4.322;2023-01-28T09:30:28;3.70;99.90
17128;DHT22;8679;50.842;4.322;2023-01-28T09:32:55;3.60;99.90
17128;DHT22;8679;50.842;4.322;2023-01-28T09:35:22;3.70;99.90
17128;DHT22;8679;50.842;4.322;2023-01-28T09:37:48;3.70;99.90
17128;DHT22;8679;50.842;4.322;2023-01-28T09:40:41;3.60;99.90
17128;DHT22;8679;50.842;4.322;2023-01-28T09:45:46;3.70;99.90
17128;DHT22;8679;50.842;4.322;2023-01-28T09:48:18;3.70;99.90
17128;DHT22;8679;50.842;4.322;2023-01-28T09:50:52;3.70;99.90
17128;DHT22;8679;50.842;4.322;2023-01-28T09:53:29;3.70;99.90
17128;DHT22;8679;50.842;4.322;2023-01-28T09:56:04;3.70;99.90
17128;DHT22;8679;50.842;4.322;2023-01-28T09:58:30;3.80;99.90
17128;DHT22;8679;50.842;4.322;2023-01-28T10:06:53;3.90;92.30
17128;DHT22;8679;50.842;4.322;2023-01-28T10:15:17;3.80;99.90
17128;DHT22;8679;50.842;4.322;2023-01-28T10:17:44;3.80;97.60
17128;DHT22;8679;50.842;4.322;2023-01-28T10:22:43;3.80;98.00
17128;DHT22;8679;50.842;4.322;2023-01-28T10:25:20;3.80;91.80
17128;DHT22;8679;50.842;4.322;2023-01-28T10:27:48;3.80;90.90
17128;DHT22;8679;50.842;4.322;2023-01-28T10:32:52;3.80;94.60
17128;DHT22;8679;50.842;4.322;2023-01-28T10:35:19;3.90;77.40
17128;DHT22;8679;50.842;4.322;2023-01-28T10:37:46;3.90;89.40
17128;DHT22;8679;50.842;4.322;2023-01-28T10:40:16;3.90;97.40
17128;DHT22;8679;50.842;4.322;2023-01-28T10:42:44;3.90;98.20
17128;DHT22;8679;50.842;4.322;2023-01-28T10:45:33;3.90;93.30
17128;DHT22;8679;50.842;4.322;2023-01-28T10:48:16;3.80;96.10
17128;DHT22;8679;50.842;4.322;2023-01-28T10:50:52;3.70;98.20
17128;DHT22;8679;50.842;4.322;2023-01-28T10:53:18;3.70;99.90
17128;DHT22;8679;50.842;4.322;2023-01-28T10:55:51;3.80;99.90
17128;DHT22;8679;50.842;4.322;2023-01-28T10:58:23;3.80;99.90
17128;DHT22;8679;50.842;4.322;2023-01-28T11:00:55;3.80;99.90
17128;DHT22;8679;50.842;4.322;2023-01-28T11:03:22;3.90;99.90
17128;DHT22;8679;50.842;4.322;2023-01-28T11:05:53;3.90;99.90
17128;DHT22;8679;50.842;4.322;2023-01-28T11:08:20;3.90;99.90
17128;DHT22;8679;50.842;4.322;2023-01-28T11:10:46;3.90;99.90
17128;DHT22;8679;50.842;4.322;2023-01-28T11:13:17;3.90;99.90
17128;DHT22;8679;50.842;4.322;2023-01-28T11:18:19;3.90;99.90
17128;DHT22;8679;50.842;4.322;2023-01-28T11:21:15;3.90;92.90
17128;DHT22;8679;50.842;4.322;2023-01-28T11:23:54;3.90;96.00
17128;DHT22;8679;50.842;4.322;2023-01-28T11:26:24;3.90;96.40
17128;DHT22;8679;50.842;4.322;2023-01-28T11:28:51;4.00;99.90
17128;DHT22;8679;50.842;4.322;2023-01-28T11:31:19;4.00;99.90
17128;DHT22;8679;50.842;4.322;2023-01-28T11:34:04;4.00;94.20
17128;DHT22;8679;50.842;4.322;2023-01-28T11:36:32;4.10;97.20
17128;DHT22;8679;50.842;4.322;2023-01-28T11:39:21;4.10;82.60
17128;DHT22;8679;50.842;4.322;2023-01-28T11:41:50;4.00;75.40
17128;DHT22;8679;50.842;4.322;2023-01-28T11:55:45;4.10;96.70
17128;DHT22;8679;50.842;4.322;2023-01-28T12:01:00;4.10;93.60
17128;DHT22;8679;50.842;4.322;2023-01-28T12:03:45;4.20;78.40
17128;DHT22;8679;50.842;4.322;2023-01-28T12:23:15;4.40;50.70
17128;DHT22;8679;50.842;4.322;2023-01-28T12:28:56;4.50;35.70
17128;DHT22;8679;50.842;4.322;2023-01-28T12:45:11;4.70;9.20
17128;DHT22;8679;50.842;4.322;2023-01-28T12:47:39;4.70;20.30
17128;DHT22;8679;50.842;4.322;2023-01-28T12:50:20;5.00;37.80
17128;DHT22;8679;50.842;4.322;2023-01-28T12:52:54;5.50;45.90
17128;DHT22;8679;50.842;4.322;2023-01-28T12:55:34;5.90;3.80
17128;DHT22;8679;50.842;4.322;2023-01-28T12:58:04;6.10;1.00
17128;DHT22;8679;50.842;4.322;2023-01-28T13:00:34;6.50;1.00
17128;DHT22;8679;50.842;4.322;2023-01-28T13:05:38;7.50;1.00
17128;DHT22;8679;50.842;4.322;2023-01-28T13:08:12;7.60;1.00
17128;DHT22;8679;50.842;4.322;2023-01-28T13:10:44;8.00;1.00
17128;DHT22;8679;50.842;4.322;2023-01-28T13:13:30;8.10;1.00
17128;DHT22;8679;50.842;4.322;2023-01-28T13:15:56;8.20;1.00
17128;DHT22;8679;50.842;4.322;2023-01-28T13:18:36;8.40;1.00
17128;DHT22;8679;50.842;4.322;2023-01-28T13:21:29;8.30;1.00
17128;DHT22;8679;50.842;4.322;2023-01-28T13:26:50;8.50;1.00
17128;DHT22;8679;50.842;4.322;2023-01-28T13:31:52;8.60;99.90
17128;DHT22;8679;50.842;4.322;2023-01-28T13:39:51;8.50;1.00
17128;DHT22;8679;50.842;4.322;2023-01-28T13:42:22;8.30;99.90
17128;DHT22;8679;50.842;4.322;2023-01-28T13:44:48;8.40;1.00
17128;DHT22;8679;50.842;4.322;2023-01-28T13:47:24;8.30;1.00
17128;DHT22;8679;50.842;4.322;2023-01-28T13:50:01;8.10;99.90
17128;DHT22;8679;50.842;4.322;2023-01-28T14:18:42;7.20;1.00
17128;DHT22;8679;50.842;4.322;2023-01-28T14:21:12;7.10;1.00
17128;DHT22;8679;50.842;4.322;2023-01-28T14:23:44;7.00;1.00
17128;DHT22;8679;50.842;4.322;2023-01-28T14:31:34;7.00;1.00
17128;DHT22;8679;50.842;4.322;2023-01-28T14:34:18;7.20;1.00
17128;DHT22;8679;50.842;4.322;2023-01-28T14:36:47;7.20;1.00
17128;DHT22;8679;50.842;4.322;2023-01-28T14:39:25;7.20;1.00
17128;DHT22;8679;50.842;4.322;2023-01-28T14:41:52;7.00;1.00
17128;DHT22;8679;50.842;4.322;2023-01-28T14:47:00;7.00;1.00
17128;DHT22;8679;50.842;4.322;2023-01-28T14:49:46;6.90;1.00
17128;DHT22;8679;50.842;4.322;2023-01-28T14:52:58;6.90;1.00
17128;DHT22;8679;50.842;4.322;2023-01-28T14:58:32;6.70;1.00
17128;DHT22;8679;50.842;4.322;2023-01-28T15:01:00;6.50;1.00
17128;DHT22;8679;50.842;4.322;2023-01-28T15:03:27;6.40;1.00
17128;DHT22;8679;50.842;4.322;2023-01-28T15:06:11;6.70;1.00
17128;DHT22;8679;50.842;4.322;2023-01-28T15:08:37;6.60;1.00
17128;DHT22;8679;50.842;4.322;2023-01-28T15:11:06;6.70;1.00
17128;DHT22;8679;50.842;4.322;2023-01-28T15:13:40;6.60;99.90
17128;DHT22;8679;50.842;4.322;2023-01-28T15:16:11;6.50;1.00
17128;DHT22;8679;50.842;4.322;2023-01-28T15:18:42;6.40;1.00
17128;DHT22;8679;50.842;4.322;2023-01-28T15:21:08;6.30;99.90
17128;DHT22;8679;50.842;4.322;2023-01-28T15:23:36;6.20;1.00
17128;DHT22;8679;50.842;4.322;2023-01-28T15:26:11;6.20;1.00
17128;DHT22;8679;50.842;4.322;2023-01-28T15:28:39;6.00;99.90
17128;DHT22;8679;50.842;4.322;2023-01-28T15:31:05;5.90;99.90
17128;DHT22;8679;50.842;4.322;2023-01-28T15:33:33;5.80;1.00
17128;DHT22;8679;50.842;4.322;2023-01-28T15:35:59;5.80;1.00
17128;DHT22;8679;50.842;4.322;2023-01-28T15:38:26;5.80;1.00
17128;DHT22;8679;50.842;4.322;2023-01-28T15:40:58;5.70;1.00
17128;DHT22;8679;50.842;4.322;2023-01-28T15:43:27;5.60;1.00
17128;DHT22;8679;50.842;4.322;2023-01-28T15:45:55;5.50;1.00
17128;DHT22;8679;50.842;4.322;2023-01-28T15:48:24;5.40;1.00
17128;DHT22;8679;50.842;4.322;2023-01-28T15:51:23;5.40;1.00
17128;DHT22;8679;50.842;4.322;2023-01-28T15:53:49;5.30;1.00
17128;DHT22;8679;50.842;4.322;2023-01-28T15:56:24;5.20;1.00
17128;DHT22;8679;50.842;4.322;2023-01-28T15:58:50;5.20;1.00
17128;DHT22;8679;50.842;4.322;2023-01-28T16:01:18;5.00;1.00
17128;DHT22;8679;50.842;4.322;2023-01-28T16:03:46;5.00;1.00
17128;DHT22;8679;50.842;4.322;2023-01-28T16:08:55;4.90;1.00
17128;DHT22;8679;50.842;4.322;2023-01-28T16:11:35;4.80;1.00
17128;DHT22;8679;50.842;4.322;2023-01-28T16:14:05;4.70;1.00
17128;DHT22;8679;50.842;4.322;2023-01-28T16:16:33;4.70;1.00
17128;DHT22;8679;50.842;4.322;2023-01-28T16:19:03;4.60;1.00
17128;DHT22;8679;50.842;4.322;2023-01-28T16:21:32;4.50;1.00
17128;DHT22;8679;50.842;4.322;2023-01-28T16:24:04;4.50;1.00
17128;DHT22;8679;50.842;4.322;2023-01-28T16:26:32;4.40;1.00
17128;DHT22;8679;50.842;4.322;2023-01-28T16:29:13;4.40;1.00
17128;DHT22;8679;50.842;4.322;2023-01-28T16:31:39;4.40;1.00
17128;DHT22;8679;50.842;4.322;2023-01-28T16:34:05;4.40;1.00
17128;DHT22;8679;50.842;4.322;2023-01-28T16:36:30;4.30;1.00
17128;DHT22;8679;50.842;4.322;2023-01-28T16:38:57;4.30;1.00
17128;DHT22;8679;50.842;4.322;2023-01-28T16:41:27;4.30;1.00
17128;DHT22;8679;50.842;4.322;2023-01-28T16:43:54;4.30;1.00
17128;DHT22;8679;50.842;4.322;2023-01-28T16:46:20;4.20;1.00
17128;DHT22;8679;50.842;4.322;2023-01-28T16:48:45;4.10;1.00
17128;DHT22;8679;50.842;4.322;2023-01-28T16:51:15;4.10;1.00
17128;DHT22;8679;50.842;4.322;2023-01-28T16:53:46;3.90;1.00
17128;DHT22;8679;50.842;4.322;2023-01-28T16:56:14;3.80;1.00
17128;DHT22;8679;50.842;4.322;2023-01-28T16:58:41;3.70;1.00
17128;DHT22;8679;50.842;4.322;2023-01-28T17:01:06;3.60;1.00
17128;DHT22;8679;50.842;4.322;2023-01-28T17:03:32;3.40;1.00
17128;DHT22;8679;50.842;4.322;2023-01-28T17:05:57;3.30;1.00
17128;DHT22;8679;50.842;4.322;2023-01-28T17:08:23;3.30;1.00
17128;DHT22;8679;50.842;4.322;2023-01-28T17:10:53;3.10;1.00
17128;DHT22;8679;50.842;4.322;2023-01-28T17:13:19;2.90;1.00
17128;DHT22;8679;50.842;4.322;2023-01-28T17:15:45;2.90;1.00
17128;DHT22;8679;50.842;4.322;2023-01-28T17:18:10;2.80;1.00
17128;DHT22;8679;50.842;4.322;2023-01-28T17:20:37;2.80;1.00
17128;DHT22;8679;50.842;4.322;2023-01-28T17:23:06;2.70;1.00
17128;DHT22;8679;50.842;4.322;2023-01-28T17:25:37;2.70;1.00
17128;DHT22;8679;50.842;4.322;2023-01-28T17:28:04;2.60;1.00
17128;DHT22;8679;50.842;4.322;2023-01-28T17:30:30;2.50;1.00
17128;DHT22;8679;50.842;4.322;2023-01-28T17:32:56;2.50;1.00
17128;DHT22;8679;50.842;4.322;2023-01-28T17:35:21;2.40;1.00
17128;DHT22;8679;50.842;4.322;2023-01-28T17:37:47;2.30;1.00
17128;DHT22;8679;50.842;4.322;2023-01-28T17:40:13;2.30;1.00
17128;DHT22;8679;50.842;4.322;2023-01-28T17:42:39;2.30;1.00
17128;DHT22;8679;50.842;4.322;2023-01-28T17:45:05;2.20;1.00
17128;DHT22;8679;50.842;4.322;2023-01-28T17:47:31;2.20;1.00
17128;DHT22;8679;50.842;4.322;2023-01-28T17:49:57;2.10;1.00
17128;DHT22;8679;50.842;4.322;2023-01-28T17:52:22;2.10;1.00
17128;DHT22;8679;50.842;4.322;2023-01-28T17:54:48;2.10;1.00
17128;DHT22;8679;50.842;4.322;2023-01-28T17:57:13;2.00;1.00
17128;DHT22;8679;50.842;4.322;2023-01-28T17:59:39;2.00;1.00
17128;DHT22;8679;50.842;4.322;2023-01-28T18:02:05;2.00;1.00
17128;DHT22;8679;50.842;4.322;2023-01-28T18:04:39;1.90;1.00
17128;DHT22;8679;50.842;4.322;2023-01-28T18:07:06;1.90;1.00
17128;DHT22;8679;50.842;4.322;2023-01-28T18:09:39;1.90;1.00
17128;DHT22;8679;50.842;4.322;2023-01-28T18:12:06;1.90;14.30
17128;DHT22;8679;50.842;4.322;2023-01-28T18:14:32;1.80;4.60
17128;DHT22;8679;50.842;4.322;2023-01-28T18:16:58;1.80;1.00
17128;DHT22;8679;50.842;4.322;2023-01-28T18:19:24;1.80;1.00
17128;DHT22;8679;50.842;4.322;2023-01-28T18:21:50;1.80;16.30
17128;DHT22;8679;50.842;4.322;2023-01-28T18:24:16;1.80;24.00
17128;DHT22;8679;50.842;4.322;2023-01-28T18:26:41;1.80;12.90
17128;DHT22;8679;50.842;4.322;2023-01-28T18:29:07;1.70;31.30
17128;DHT22;8679;50.842;4.322;2023-01-28T18:31:33;1.70;42.80